• Join FlightAware (Why Join?)
  • Login
  • US Flag 
07:10PM EST


 

Airport Tracker/Info


-or-


 

Live Flight TrackerFlight Track Log ✈ SWA738 ✈ 19-Jul-2014 ✈ KMCO - KMCI

Flight Track Log - Related Links

Times and Time Zones

All times are in EDT time to prevent confusion due to time zone crossing. See the SWA738 flight status page for this flight to view local times or setup timezone preferences in your user account.

Time Position Orientation Groundspeed Altitude Reporting Facility
EDT Latitude Longitude Course Direction KTS MPH feet Rate Location/Type
09:31AM 28.4167 -81.3167 204° Southwest 180 207 600  Level Orlando TRACON
09:32AM 28.3833 -81.3333 204° Southwest 198 228 1,400 2,160 Climbing Orlando TRACON
09:33AM 28.3333 -81.3667 210° Southwest 241 277 3,700 2,580 Climbing Orlando TRACON
09:34AM 28.3333 -81.4500 270° West 277 319 6,600 2,520 Climbing Orlando TRACON
09:35AM 28.3144 -81.6006 262° West 277 319 10,600 2,160 Climbing Jacksonville Center
09:36AM 28.3053 -81.7092 265° West 311 358 12,500 2,100 Climbing Jacksonville Center
09:37AM 28.2936 -81.8247 263° West 351 404 14,800 2,160 Climbing Jacksonville Center
09:38AM 28.3050 -81.9400 276° West 366 421 16,900 2,040 Climbing Jacksonville Center
09:39AM 28.3578 -82.0458 300° West 366 421 18,900 1,800 Climbing Jacksonville Center
09:40AM 28.4128 -82.1561 300° West 381 438 20,600 2,100 Climbing Jacksonville Center
09:41AM 28.4781 -82.2572 306° West 397 457 23,100 1,800 Climbing Jacksonville Center
09:42AM 28.5722 -82.3275 327° Northwest 392 451 24,200 1,260 Climbing Jacksonville Center
09:43AM 28.6644 -82.4053 324° Northwest 403 464 25,700 1,260 Climbing Jacksonville Center
09:44AM 28.7503 -82.4733 325° Northwest 409 471 26,800 1,140 Climbing Jacksonville Center
09:45AM 28.8464 -82.5514 325° Northwest 420 483 28,000 1,320 Climbing Jacksonville Center
09:46AM 28.9447 -82.6317 324° Northwest 428 493 29,500 1,260 Climbing Jacksonville Center
09:47AM 29.0408 -82.7097 325° Northwest 433 498 30,600 1,020 Climbing Jacksonville Center
09:48AM 29.1392 -82.7881 325° Northwest 433 498 31,600 1,080 Climbing Jacksonville Center
09:49AM 29.2372 -82.8689 324° Northwest 433 498 32,800 960 Climbing Jacksonville Center
09:50AM 29.3333 -82.9472 325° Northwest 433 498 33,600 600 Climbing Jacksonville Center
09:51AM 29.4333 -83.0286 325° Northwest 433 498 34,000 180 Climbing Jacksonville Center
09:52AM 29.5378 -83.1144 324° Northwest 442 509 34,000  Level Jacksonville Center
09:53AM 29.6378 -83.1983 324° Northwest 447 514 34,000  Level Jacksonville Center
09:54AM 29.7378 -83.2800 325° Northwest 447 514 34,000  Level Jacksonville Center
09:55AM 29.8378 -83.3594 325° Northwest 447 514 34,000  Level Jacksonville Center
09:56AM 29.9375 -83.4439 324° Northwest 447 514 34,000  Level Jacksonville Center
09:57AM 30.0375 -83.5236 325° Northwest 447 514 34,000  Level Jacksonville Center
09:58AM 30.1350 -83.6058 324° Northwest 441 507 34,000  Level Jacksonville Center
09:59AM 30.2347 -83.6883 324° Northwest 441 507 34,000  Level Jacksonville Center
10:00AM 30.3344 -83.7686 325° Northwest 436 502 34,000  Level Jacksonville Center
10:01AM 30.4278 -83.8514 323° Northwest 431 496 34,000  Level Jacksonville Center
10:02AM 30.5253 -83.9294 325° Northwest 431 496 34,000  Level Jacksonville Center
10:03AM 30.6311 -84.0200 324° Northwest 431 496 34,000  Level Jacksonville Center
10:04AM 30.7244 -84.0986 324° Northwest 431 496 34,000  Level Jacksonville Center
10:05AM 30.8217 -84.1794 324° Northwest 431 496 34,000  Level Jacksonville Center
10:06AM 30.9169 -84.2608 324° Northwest 431 496 34,000  Level Jacksonville Center
10:07AM 31.0142 -84.3444 324° Northwest 431 496 34,000  Level Jacksonville Center
10:08AM 31.1008 -84.4333 319° Northwest 431 496 34,000  Level Jacksonville Center
10:09AM 31.1808 -84.5367 312° West 426 490 34,000  Level Jacksonville Center
10:11AM 31.3111 -84.6981 313° West 426 490 34,000  Level Atlanta Center
10:12AM 31.3911 -84.7997 313° West 424 488 34,000  Level Atlanta Center
10:13AM 31.4853 -84.9206 312° West 422 486 34,000  Level Atlanta Center
10:14AM 31.5647 -85.0211 313° West 420 483 34,000  Level Atlanta Center
10:15AM 31.6422 -85.1211 312° West 417 480 34,000  Level Atlanta Center
10:16AM 31.7172 -85.2178 312° West 414 476 34,000  Level Atlanta Center
10:17AM 31.7956 -85.3181 313° West 415 478 34,000  Level Atlanta Center
10:18AM 31.8892 -85.4381 313° West 416 479 34,000  Level Atlanta Center
10:19AM 31.9661 -85.5400 312° West 417 480 34,000  Level Atlanta Center
10:20AM 32.0456 -85.6411 313° West 418 481 34,000  Level Atlanta Center
10:21AM 32.1219 -85.7419 312° West 418 481 34,000  Level Atlanta Center
10:22AM 32.2033 -85.8461 313° West 410 472 34,000  Level Atlanta Center
10:23AM 32.2797 -85.9464 312° West 413 475 34,000  Level Atlanta Center
10:24AM 32.3592 -86.0489 313° West 424 488 34,000  Level Atlanta Center
10:26AM 32.4514 -86.1733 311° West 418 481 34,000  Level Atlanta Center
10:27AM 32.5181 -86.2625 312° West 417 480 34,000  Level Atlanta Center
10:28AM 32.6108 -86.3858 312° West 418 481 34,000  Level Atlanta Center
10:29AM 32.6883 -86.4858 313° West 416 479 34,000  Level Atlanta Center
10:30AM 32.7928 -86.5522 332° Northwest 426 490 34,000  Level Atlanta Center
10:31AM 32.8969 -86.6189 332° Northwest 426 490 34,000  Level Atlanta Center
10:32AM 32.9731 -86.7200 312° West 410 472 34,000  Level Atlanta Center
10:33AM 33.0633 -86.8425 311° West 412 474 34,000  Level Atlanta Center
10:34AM 33.1386 -86.9478 311° West 415 478 34,000  Level Atlanta Center
10:35AM 33.2136 -87.0517 311° West 415 478 34,000  Level Atlanta Center
10:36AM 33.2981 -87.1692 311° West 418 481 34,000  Level Atlanta Center
10:37AM 33.3728 -87.2750 310° West 417 480 34,000  Level Atlanta Center
10:38AM 33.4489 -87.3800 311° West 417 480 34,000  Level Atlanta Center
10:39AM 33.5253 -87.4861 311° West 417 480 34,000  Level Atlanta Center
10:40AM 33.6000 -87.5944 310° West 417 480 34,000  Level Atlanta Center
10:41AM 33.6756 -87.7003 311° West 417 480 34,000  Level Atlanta Center
10:42AM 33.7672 -87.8300 310° West 420 483 34,000  Level Atlanta Center
10:43AM 33.8411 -87.9372 310° West 418 481 34,000  Level Atlanta Center
10:44AM 33.9167 -88.0431 311° West 418 481 34,000  Level Atlanta Center
10:45AM 34.0058 -88.1686 311° West 417 480 34,000  Level Memphis Center
10:47AM 34.0803 -88.2758 310° West 417 480 34,000  Level Memphis Center
10:48AM 34.1700 -88.4050 310° West 417 480 34,000  Level Memphis Center
10:49AM 34.2447 -88.5131 310° West 417 480 34,000  Level Memphis Center
10:50AM 34.3197 -88.6211 310° West 417 480 34,000  Level Memphis Center
10:52AM 34.4767 -88.8500 310° West 417 480 34,000  Level Memphis Center
10:53AM 34.5508 -88.9575 310° West 417 480 34,000  Level Memphis Center
10:54AM 34.6222 -89.0647 309° West 416 479 34,000  Level Memphis Center
10:55AM 34.6953 -89.1708 310° West 412 474 34,000  Level Memphis Center
10:56AM 34.7672 -89.2769 310° West 412 474 34,000  Level Memphis Center
10:57AM 34.8386 -89.3817 310° West 410 472 34,000  Level Memphis Center
10:58AM 34.9242 -89.5050 310° West 406 467 34,000  Level Memphis Center
10:59AM 34.9950 -89.6097 310° West 406 467 34,000  Level Memphis Center
11:00AM 35.0644 -89.7150 309° West 406 467 34,000  Level Memphis Center
11:01AM 35.1336 -89.8197 309° West 405 466 34,000  Level Memphis Center
11:02AM 35.2153 -89.9444 309° West 400 460 34,000  Level Memphis Center
11:03AM 35.2833 -90.0483 309° West 397 457 34,000  Level Memphis Center
11:04AM 35.3533 -90.1528 309° West 397 457 34,000  Level Memphis Center
11:05AM 35.4219 -90.2583 309° West 397 457 34,000  Level Memphis Center
11:06AM 35.4906 -90.3614 309° West 396 456 34,000  Level Memphis Center
11:07AM 35.5581 -90.4669 308° West 395 455 34,000  Level Memphis Center
11:08AM 35.6267 -90.5714 309° West 395 455 34,000  Level Memphis Center
11:09AM 35.7025 -90.6869 309° West 395 455 34,000  Level Memphis Center
11:10AM 35.7706 -90.7928 308° West 395 455 34,000  Level Memphis Center
11:11AM 35.8397 -90.8983 309° West 395 455 34,000  Level Memphis Center
11:12AM 35.9208 -91.0256 308° West 395 455 34,000  Level Memphis Center
11:13AM 35.9892 -91.1311 309° West 394 453 34,000  Level Memphis Center
11:14AM 36.0564 -91.2369 308° West 394 453 34,000  Level Memphis Center
11:15AM 36.1247 -91.3431 309° West 393 452 34,000  Level Memphis Center
11:16AM 36.1917 -91.4478 308° West 393 452 34,000  Level Memphis Center
11:17AM 36.2567 -91.5525 308° West 390 449 34,000  Level Memphis Center
11:18AM 36.3242 -91.6583 308° West 390 449 34,000  Level Memphis Center
11:19AM 36.4019 -91.7817 308° West 390 449 34,000  Level Memphis Center
11:21AM 36.4683 -91.8878 308° West 390 449 34,000  Level Memphis Center
11:22AM 36.5406 -92.0031 308° West 390 449 34,000  Level Memphis Center
11:23AM 36.6083 -92.1100 308° West 390 449 34,000  Level Memphis Center
11:24AM 36.6744 -92.2189 307° West 390 449 34,000  Level Memphis Center
11:25AM 36.7414 -92.3250 308° West 390 449 34,000  Level Memphis Center
11:26AM 36.8075 -92.4325 308° West 390 449 34,000  Level Memphis Center
11:27AM 36.8742 -92.5411 308° West 390 449 34,000  Level Memphis Center
11:28AM 36.9406 -92.6497 307° West 390 449 34,000  Level Kansas City Center
11:29AM 37.0067 -92.7578 307° West 390 449 34,000  Level Kansas City Center
11:30AM 37.0950 -92.8422 323° Northwest 394 453 34,000  Level Kansas City Center
11:31AM 37.1908 -92.9156 329° Northwest 400 460 34,000  Level Kansas City Center
11:32AM 37.3033 -93.0011 329° Northwest 396 456 34,000  Level Kansas City Center
11:33AM 37.3969 -93.0728 329° Northwest 394 453 34,000 -300 Level Kansas City Center
11:34AM 37.4917 -93.1458 329° Northwest 394 453 33,400 -1,020 Descending Kansas City Center
11:35AM 37.5886 -93.2206 329° Northwest 398 458 31,900 -1,020 Descending Kansas City Center
11:36AM 37.6833 -93.2953 328° Northwest 399 459 31,300 -660 Descending Kansas City Center
11:37AM 37.7772 -93.3692 328° Northwest 399 459 30,600 -660 Descending Kansas City Center
11:38AM 37.8742 -93.4442 329° Northwest 399 459 30,000 -300 Descending Kansas City Center
11:39AM 37.9967 -93.5408 328° Northwest 415 478 30,000  Level Kansas City Center
11:40AM 38.1000 -93.6211 329° Northwest 427 491 30,000  Level Kansas City Center
11:41AM 38.1994 -93.7008 328° Northwest 427 491 30,000 -120 Level Kansas City Center
11:42AM 38.2994 -93.7792 328° Northwest 425 489 29,800 -1,440 Descending Kansas City Center
11:43AM 38.3981 -93.8611 327° Northwest 424 488 27,100 -2,640 Descending Kansas City Center
11:44AM 38.4967 -93.9364 329° Northwest 425 489 24,400 -2,760 Descending Kansas City Center
11:45AM 38.6161 -94.0275 329° Northwest 412 474 21,400 -2,640 Descending Kansas City Center
11:46AM 38.7069 -94.1047 326° Northwest 396 456 19,000 -2,280 Descending Kansas City Center
11:47AM 38.7853 -94.1922 319° Northwest 378 435 16,800 -2,280 Descending Kansas City Center
11:48AM 38.8633 -94.2756 320° Northwest 371 427 14,400 -2,160 Descending Kansas City Center
11:49AM 38.9375 -94.3583 319° Northwest 356 410 12,400 -1,260 Descending Kansas City Center
11:50AM 39.0200 -94.4472 320° Northwest 322 371 11,900 -300 Descending Kansas City Center
11:52AM 39.0825 -94.5156 320° Northwest 298 343 11,900 -60 Level Kansas City Center
11:53AM 39.1389 -94.5772 320° Northwest 271 312 11,800 -600 Descending Kansas City Center
11:54AM 39.1925 -94.6281 324° Northwest 245 282 10,700 -1,440 Descending Kansas City Center
11:55AM 39.2581 -94.6108 11° North 237 273 8,900 -1,500 Descending Kansas City Center
11:56AM 39.3133 -94.5919 15° North 207 238 7,600 -1,920 Descending Kansas City Center
11:57AM 39.3706 -94.5869 North 183 211 5,000 -1,920 Descending Kansas City Center
11:58AM 39.3706 -94.6417 270° West 157 181 3,600 -1,380 Descending Kansas City Center
11:59AM 39.3556 -94.6828 245° Southwest 140 161 2,200 -1,200 Descending Kansas City Center
12:00PM 39.3181 -94.6983 198° South 141 162 1,200 -960 Descending Kansas City Center
12:02PM 39.2976 -94.7139 234° Southwest  Level Estimated